createdAt,value
2022-11-24T00:01:47.429Z,99004.47
2022-11-24T00:04:50.348Z,99011.59
2022-11-24T00:07:52.897Z,99011.38
2022-11-24T00:10:55.751Z,99008.97
2022-11-24T00:13:59.061Z,99012.31
2022-11-24T00:17:01.822Z,99018.09
2022-11-24T00:20:05.701Z,99008.44
2022-11-24T00:23:08.492Z,99012.50
2022-11-24T00:26:22.501Z,99014.94
2022-11-24T00:29:25.278Z,99012.31
2022-11-24T00:32:29.654Z,99019.16
2022-11-24T00:35:32.441Z,99028.97
2022-11-24T00:38:34.882Z,99026.03
2022-11-24T00:41:37.703Z,99028.53
2022-11-24T00:44:40.573Z,99036.03
2022-11-24T00:47:43.331Z,99033.81
2022-11-24T00:51:02.130Z,99036.62
2022-11-24T00:54:06.323Z,99046.94
2022-11-24T00:57:08.820Z,99050.28
2022-11-24T01:00:13.958Z,99052.91
2022-11-24T01:03:17.741Z,99050.09
2022-11-24T01:06:23.193Z,99049.22
2022-11-24T01:09:26.919Z,99055.19
2022-11-24T01:12:29.901Z,99056.03
2022-11-24T01:15:35.634Z,99057.16
2022-11-24T01:18:38.464Z,99059.44
2022-11-24T01:21:41.074Z,99058.13
2022-11-24T01:24:43.958Z,99055.91
2022-11-24T01:27:46.515Z,99058.00
2022-11-24T01:31:00.229Z,99058.72
2022-11-24T01:34:02.804Z,99060.50
2022-11-24T01:37:05.641Z,99063.78
2022-11-24T01:40:08.889Z,99068.72
2022-11-24T01:43:20.744Z,99065.84
2022-11-24T01:46:29.083Z,99067.41
2022-11-24T01:49:41.613Z,99074.66
2022-11-24T01:52:54.085Z,99079.44
2022-11-24T01:55:57.791Z,99077.28
2022-11-24T01:59:05.324Z,99071.53
2022-11-24T02:02:08.998Z,99070.19
2022-11-24T02:05:39.516Z,99077.16
2022-11-24T02:08:55.326Z,99069.72
2022-11-24T02:11:59.673Z,99073.50
2022-11-24T02:15:02.530Z,99067.22
2022-11-24T02:18:05.753Z,99061.38
2022-11-24T02:21:11.634Z,99075.59
2022-11-24T02:24:29.698Z,99063.47
2022-11-24T02:27:32.658Z,99072.97
2022-11-24T02:30:37.160Z,99073.94
2022-11-24T02:33:40.381Z,99066.81
2022-11-24T02:36:42.860Z,99066.84
2022-11-24T02:39:45.654Z,99068.53
2022-11-24T02:42:48.335Z,99065.59
2022-11-24T02:45:51.287Z,99068.38
2022-11-24T02:48:53.910Z,99076.50
2022-11-24T02:51:57.004Z,99063.03
2022-11-24T02:54:59.537Z,99069.81
2022-11-24T02:58:02.469Z,99072.59
2022-11-24T03:01:05.257Z,99073.25
2022-11-24T03:04:08.230Z,99076.59
2022-11-24T03:07:10.812Z,99071.16
2022-11-24T03:10:13.785Z,99074.09
2022-11-24T03:13:16.508Z,99076.84
2022-11-24T03:16:19.428Z,99076.00
2022-11-24T03:19:22.007Z,99080.91
2022-11-24T03:22:24.752Z,99087.50
2022-11-24T03:25:27.329Z,99087.06
2022-11-24T03:28:31.752Z,99088.31
2022-11-24T03:31:34.662Z,99092.53
2022-11-24T03:34:45.260Z,99093.22
2022-11-24T03:37:48.593Z,99101.91
2022-11-24T03:40:51.484Z,99100.56
2022-11-24T03:43:54.450Z,99101.19
2022-11-24T03:46:57.158Z,99094.25
2022-11-24T03:49:59.530Z,99100.47
2022-11-24T03:53:02.339Z,99106.44
2022-11-24T03:56:05.243Z,99108.31
2022-11-24T03:59:08.741Z,99103.81
2022-11-24T04:02:11.260Z,99103.06
2022-11-24T04:05:14.679Z,99107.56
2022-11-24T04:08:17.575Z,99117.28
2022-11-24T04:11:38.792Z,99115.81
2022-11-24T04:14:41.336Z,99114.66
2022-11-24T04:17:45.287Z,99115.59
2022-11-24T04:20:51.120Z,99121.44
2022-11-24T04:23:54.035Z,99127.53
2022-11-24T04:26:56.572Z,99124.91
2022-11-24T04:29:59.534Z,99128.91
2022-11-24T04:33:02.243Z,99139.34
2022-11-24T04:36:05.457Z,99143.50
2022-11-24T04:39:24.034Z,99145.09
2022-11-24T04:42:29.440Z,99141.75
2022-11-24T04:45:31.978Z,99145.41
2022-11-24T04:48:34.832Z,99158.47
2022-11-24T04:51:38.939Z,99163.06
2022-11-24T04:54:41.791Z,99160.78
2022-11-24T04:57:44.342Z,99165.88
2022-11-24T05:00:47.385Z,99171.19
2022-11-24T05:03:49.913Z,99176.09
2022-11-24T05:06:52.812Z,99184.34
2022-11-24T05:10:14.304Z,99185.09
2022-11-24T05:13:17.072Z,99191.34
2022-11-24T05:16:19.556Z,99194.94
2022-11-24T05:19:22.577Z,99198.78
2022-11-24T05:22:27.027Z,99205.09
2022-11-24T05:25:31.393Z,99207.28
2022-11-24T05:28:40.228Z,99203.84
2022-11-24T05:31:43.213Z,99211.91
2022-11-24T05:34:45.831Z,99209.47
2022-11-24T05:37:48.669Z,99214.94
2022-11-24T05:40:51.271Z,99223.78
2022-11-24T05:43:54.082Z,99220.28
2022-11-24T05:46:56.627Z,99228.00
2022-11-24T05:49:59.464Z,99239.09
2022-11-24T05:53:04.328Z,99245.34
2022-11-24T05:56:07.436Z,99241.00
2022-11-24T05:59:10.767Z,99244.22
2022-11-24T06:02:14.257Z,99246.00
2022-11-24T06:05:17.860Z,99246.28
2022-11-24T06:08:20.769Z,99252.22
2022-11-24T06:11:23.560Z,99255.25
2022-11-24T06:14:26.125Z,99262.03
2022-11-24T06:17:28.999Z,99256.91
2022-11-24T06:20:33.021Z,99259.19
2022-11-24T06:23:36.023Z,99261.97
2022-11-24T06:26:38.539Z,99261.22
2022-11-24T06:29:42.030Z,99268.19
2022-11-24T06:32:49.380Z,99273.25
2022-11-24T06:35:53.496Z,99279.00
2022-11-24T06:38:56.298Z,99285.88
2022-11-24T06:42:00.800Z,99293.75
2022-11-24T06:45:08.779Z,99294.88
2022-11-24T06:48:13.528Z,99288.72
2022-11-24T06:51:15.983Z,99288.56
2022-11-24T06:54:21.157Z,99288.72
2022-11-24T06:57:23.664Z,99295.44
2022-11-24T07:00:32.075Z,99305.22
2022-11-24T07:03:34.825Z,99303.75
2022-11-24T07:06:37.631Z,99313.00
2022-11-24T07:09:40.150Z,99316.22
2022-11-24T07:12:43.063Z,99320.63
2022-11-24T07:15:45.798Z,99324.22
2022-11-24T07:18:53.972Z,99331.63
2022-11-24T07:21:56.581Z,99335.19
2022-11-24T07:24:59.533Z,99338.91
2022-11-24T07:28:02.120Z,99340.63
2022-11-24T07:31:09.875Z,99340.44
2022-11-24T07:34:14.622Z,99359.19
2022-11-24T07:37:17.416Z,99357.28
2022-11-24T07:40:20.037Z,99365.88
2022-11-24T07:43:22.819Z,99359.31
2022-11-24T07:46:25.237Z,99366.84
2022-11-24T07:49:28.020Z,99360.97
2022-11-24T07:52:30.755Z,99365.94
2022-11-24T07:55:33.458Z,99366.94
2022-11-24T07:58:37.437Z,99376.09
2022-11-24T08:01:40.909Z,99378.38
2022-11-24T08:04:43.740Z,99377.44
2022-11-24T08:07:46.266Z,99375.66
2022-11-24T08:10:49.273Z,99372.22
2022-11-24T08:13:52.029Z,99379.56
2022-11-24T08:16:54.868Z,99381.63
2022-11-24T08:19:57.511Z,99385.59
2022-11-24T08:23:03.638Z,99378.13
2022-11-24T08:26:09.229Z,99385.53
2022-11-24T08:29:11.970Z,99384.88
2022-11-24T08:32:21.710Z,99389.50
2022-11-24T08:35:25.099Z,99393.13
2022-11-24T08:38:27.552Z,99394.41
2022-11-24T08:41:31.207Z,99393.84
2022-11-24T08:44:34.095Z,99407.03
2022-11-24T08:47:37.256Z,99413.53
2022-11-24T08:50:40.205Z,99404.63
2022-11-24T08:53:43.811Z,99411.03
2022-11-24T08:56:47.111Z,99411.47
2022-11-24T08:59:50.160Z,99422.25
2022-11-24T09:02:55.081Z,99413.59
2022-11-24T09:05:57.903Z,99412.50
2022-11-24T09:09:01.584Z,99415.13
2022-11-24T09:12:07.469Z,99408.34
2022-11-24T09:15:13.733Z,99421.31
2022-11-24T09:18:16.488Z,99431.56
2022-11-24T09:21:21.735Z,99417.34
2022-11-24T09:24:24.560Z,99423.28
2022-11-24T09:27:27.876Z,99421.63
2022-11-24T09:30:30.826Z,99421.09
2022-11-24T09:33:34.037Z,99421.50
2022-11-24T09:36:37.019Z,99429.84
2022-11-24T09:39:39.981Z,99430.72
2022-11-24T09:43:16.483Z,99437.56
2022-11-24T09:47:00.756Z,99425.47
2022-11-24T09:50:20.213Z,99437.37
2022-11-24T09:53:34.424Z,99435.88
2022-11-24T09:56:40.673Z,99429.28
2022-11-24T09:59:43.208Z,99433.94
2022-11-24T10:02:49.305Z,99434.75
2022-11-24T10:05:52.597Z,99436.44
2022-11-24T10:09:17.138Z,99439.13
2022-11-24T10:12:57.012Z,99446.16
2022-11-24T10:16:32.051Z,99439.16
2022-11-24T10:20:13.493Z,99446.06
2022-11-24T10:23:45.294Z,99436.66
2022-11-24T10:26:55.646Z,99432.81
2022-11-24T10:30:00.459Z,99431.78
2022-11-24T10:33:19.324Z,99435.59
2022-11-24T10:36:35.891Z,99426.00
2022-11-24T10:40:00.287Z,99429.47
2022-11-24T10:43:05.340Z,99440.78
2022-11-24T10:46:39.123Z,99438.16
2022-11-24T10:49:51.073Z,99441.12
2022-11-24T10:53:22.582Z,99452.97
2022-11-24T10:56:25.216Z,99450.34
2022-11-24T10:59:35.343Z,99454.34
2022-11-24T11:02:41.334Z,99462.69
2022-11-24T11:05:51.089Z,99465.06
2022-11-24T11:09:13.529Z,99467.75
2022-11-24T11:12:42.574Z,99471.59
2022-11-24T11:15:43.405Z,99469.31
2022-11-24T11:18:49.586Z,99473.53
2022-11-24T11:22:12.958Z,99474.16
2022-11-24T11:25:23.319Z,99476.56
2022-11-24T11:28:28.992Z,99485.16
2022-11-24T11:31:33.116Z,99488.91
2022-11-24T11:34:37.095Z,99496.25
2022-11-24T11:37:40.527Z,99496.47
2022-11-24T11:40:43.886Z,99495.81
2022-11-24T11:43:50.530Z,99496.47
2022-11-24T11:46:56.254Z,99503.91
2022-11-24T11:49:59.174Z,99503.66
2022-11-24T11:53:14.042Z,99496.44
2022-11-24T11:56:28.517Z,99496.59
2022-11-24T11:59:40.304Z,99500.16
2022-11-24T12:03:12.029Z,99499.59
2022-11-24T12:06:36.378Z,99502.12
2022-11-24T12:10:03.355Z,99500.28
2022-11-24T12:13:09.067Z,99495.97
2022-11-24T12:16:31.049Z,99500.44
2022-11-24T12:20:21.535Z,99509.25
2022-11-24T12:23:55.967Z,99495.53
2022-11-24T12:27:11.092Z,99500.19
2022-11-24T12:30:16.880Z,99501.16
2022-11-24T12:33:35.522Z,99508.13
2022-11-24T12:36:48.696Z,99500.78
2022-11-24T12:40:23.683Z,99503.66
2022-11-24T12:43:41.796Z,99501.94
2022-11-24T12:46:59.284Z,99501.38
2022-11-24T12:50:07.591Z,99510.25
2022-11-24T12:53:23.384Z,99513.31
2022-11-24T12:56:47.734Z,99517.41
2022-11-24T13:00:16.357Z,99519.66
2022-11-24T13:04:05.263Z,99514.63
2022-11-24T13:07:15.456Z,99512.56
2022-11-24T13:10:53.547Z,99525.59
2022-11-24T13:14:06.038Z,99528.84
2022-11-24T13:17:50.232Z,99528.50
2022-11-24T13:20:57.272Z,99523.53
2022-11-24T13:24:24.627Z,99523.06
2022-11-24T13:27:39.271Z,99523.91
2022-11-24T13:30:45.335Z,99521.28
2022-11-24T13:33:48.190Z,99531.47
2022-11-24T13:36:53.850Z,99525.62
2022-11-24T13:40:01.240Z,99535.13
2022-11-24T13:43:03.671Z,99542.09
2022-11-24T13:46:09.875Z,99549.25
2022-11-24T13:49:20.847Z,99551.81
2022-11-24T13:52:36.117Z,99547.06
2022-11-24T13:55:41.045Z,99553.63
2022-11-24T13:58:46.473Z,99544.78
2022-11-24T14:01:56.688Z,99560.59
2022-11-24T14:04:59.657Z,99551.78
2022-11-24T14:08:03.358Z,99564.09
2022-11-24T14:11:16.968Z,99564.34
2022-11-24T14:14:21.289Z,99575.16
2022-11-24T14:17:28.629Z,99572.88
2022-11-24T14:20:31.349Z,99576.25
2022-11-24T14:23:34.320Z,99584.22
2022-11-24T14:26:39.391Z,99577.59
2022-11-24T14:30:15.535Z,99589.91
2022-11-24T14:33:20.070Z,99587.72
2022-11-24T14:36:22.865Z,99592.97
2022-11-24T14:39:26.876Z,99590.97
2022-11-24T14:42:30.714Z,99599.34
2022-11-24T14:45:34.730Z,99597.50
2022-11-24T14:48:53.097Z,99604.19
2022-11-24T14:52:03.418Z,99611.91
2022-11-24T14:55:23.324Z,99603.78
2022-11-24T14:58:40.568Z,99613.97
2022-11-24T15:01:44.985Z,99618.63
2022-11-24T15:05:03.155Z,99618.03
2022-11-24T15:08:06.394Z,99627.69
2022-11-24T15:11:09.010Z,99630.13
2022-11-24T15:14:31.873Z,99636.25
2022-11-24T15:17:34.721Z,99628.16
2022-11-24T15:20:43.034Z,99630.91
2022-11-24T15:24:05.601Z,99641.09
2022-11-24T15:27:08.615Z,99640.56
2022-11-24T15:30:12.592Z,99648.53
2022-11-24T15:33:17.726Z,99653.16
2022-11-24T15:36:20.819Z,99650.84
2022-11-24T15:39:23.593Z,99653.34
2022-11-24T15:42:26.249Z,99660.38
2022-11-24T15:45:29.054Z,99656.50
2022-11-24T15:48:32.165Z,99669.62
2022-11-24T15:51:36.148Z,99665.72
2022-11-24T15:54:38.714Z,99663.28
2022-11-24T15:57:41.522Z,99661.91
2022-11-24T16:00:45.063Z,99669.97
2022-11-24T16:03:49.015Z,99673.66
2022-11-24T16:06:51.825Z,99670.69
2022-11-24T16:09:54.643Z,99670.88
2022-11-24T16:12:57.396Z,99679.69
2022-11-24T16:16:00.459Z,99681.78
2022-11-24T16:19:03.134Z,99681.50
2022-11-24T16:22:06.513Z,99694.94
2022-11-24T16:25:09.330Z,99684.19
2022-11-24T16:28:12.097Z,99691.75
2022-11-24T16:31:16.244Z,99687.22
2022-11-24T16:34:21.549Z,99683.56
2022-11-24T16:37:24.450Z,99687.50
2022-11-24T16:40:27.286Z,99688.53
2022-11-24T16:43:30.100Z,99689.31
2022-11-24T16:46:33.142Z,99695.19
2022-11-24T16:49:36.201Z,99705.66
2022-11-24T16:52:39.075Z,99710.25
2022-11-24T16:55:42.852Z,99709.03
2022-11-24T16:58:46.219Z,99714.44
2022-11-24T17:01:50.727Z,99708.84
2022-11-24T17:04:53.951Z,99708.09
2022-11-24T17:07:58.480Z,99713.88
2022-11-24T17:11:09.754Z,99718.56
2022-11-24T17:14:12.711Z,99718.37
2022-11-24T17:17:15.795Z,99719.41
2022-11-24T17:20:18.521Z,99712.69
2022-11-24T17:23:21.489Z,99722.69
2022-11-24T17:26:25.007Z,99727.09
2022-11-24T17:29:30.242Z,99729.97
2022-11-24T17:32:33.651Z,99729.97
2022-11-24T17:35:37.319Z,99730.59
2022-11-24T17:38:40.284Z,99729.41
2022-11-24T17:41:46.491Z,99721.47
2022-11-24T17:44:49.706Z,99737.44
2022-11-24T17:47:52.659Z,99736.69
2022-11-24T17:51:01.282Z,99738.84
2022-11-24T17:54:31.210Z,99737.25
2022-11-24T17:57:27.073Z,99753.22
2022-11-24T18:00:30.364Z,99749.00
2022-11-24T18:03:33.726Z,99755.66
2022-11-24T18:06:38.423Z,99765.34
2022-11-24T18:09:41.361Z,99764.78
2022-11-24T18:12:44.134Z,99779.41
2022-11-24T18:15:47.117Z,99777.88
2022-11-24T18:19:07.978Z,99791.41
2022-11-24T18:22:12.238Z,99795.19
2022-11-24T18:25:14.757Z,99794.53
2022-11-24T18:28:17.817Z,99795.37
2022-11-24T18:31:22.325Z,99795.72
2022-11-24T18:34:25.484Z,99798.00
2022-11-24T18:37:33.151Z,99800.19
2022-11-24T18:40:40.777Z,99801.63
2022-11-24T18:43:44.240Z,99797.59
2022-11-24T18:46:48.916Z,99799.72
2022-11-24T18:49:51.605Z,99811.34
2022-11-24T18:52:56.300Z,99814.97
2022-11-24T18:56:06.792Z,99819.09
2022-11-24T18:59:09.997Z,99818.84
2022-11-24T19:02:12.981Z,99827.97
2022-11-24T19:05:16.091Z,99834.31
2022-11-24T19:08:19.090Z,99828.47
2022-11-24T19:11:32.561Z,99835.03
2022-11-24T19:14:35.611Z,99822.19
2022-11-24T19:17:38.934Z,99831.22
2022-11-24T19:20:43.256Z,99836.31
2022-11-24T19:23:46.328Z,99842.16
2022-11-24T19:26:49.983Z,99845.53
2022-11-24T19:29:54.990Z,99856.78
2022-11-24T19:32:58.077Z,99856.13
2022-11-24T19:36:06.423Z,99870.19
2022-11-24T19:39:16.654Z,99868.75
2022-11-24T19:42:19.652Z,99873.16
2022-11-24T19:45:22.298Z,99885.13
2022-11-24T19:48:25.251Z,99879.72
2022-11-24T19:51:33.489Z,99887.16
2022-11-24T19:54:36.868Z,99884.22
2022-11-24T19:57:39.815Z,99884.94
2022-11-24T20:00:43.129Z,99900.84
2022-11-24T20:03:49.503Z,99896.56
2022-11-24T20:06:52.369Z,99908.63
2022-11-24T20:09:55.574Z,99915.00
2022-11-24T20:12:58.563Z,99913.47
2022-11-24T20:16:10.686Z,99908.25
2022-11-24T20:19:16.116Z,99913.66
2022-11-24T20:22:19.336Z,99918.41
2022-11-24T20:25:22.187Z,99921.75
2022-11-24T20:28:25.387Z,99933.28
2022-11-24T20:31:33.804Z,99935.31
2022-11-24T20:34:38.023Z,99936.81
2022-11-24T20:37:41.073Z,99940.50
2022-11-24T20:40:48.021Z,99942.50
2022-11-24T20:43:51.741Z,99947.50
2022-11-24T20:46:56.820Z,99951.09
2022-11-24T20:49:59.942Z,99958.16
2022-11-24T20:53:04.385Z,99962.41
2022-11-24T20:56:13.027Z,99966.44
2022-11-24T20:59:22.799Z,99968.13
2022-11-24T21:02:26.497Z,99965.13
2022-11-24T21:05:29.660Z,99966.12
2022-11-24T21:08:34.810Z,99975.34
2022-11-24T21:11:40.362Z,99964.06
2022-11-24T21:14:43.120Z,99964.06
2022-11-24T21:17:46.133Z,99972.66
2022-11-24T21:20:49.033Z,99976.53
2022-11-24T21:23:52.002Z,99973.69
2022-11-24T21:26:54.796Z,99981.75
2022-11-24T21:29:57.705Z,99980.22
2022-11-24T21:33:02.746Z,99983.50
2022-11-24T21:36:06.086Z,99975.06
2022-11-24T21:39:10.110Z,99975.81
2022-11-24T21:42:12.983Z,99985.97
2022-11-24T21:45:15.603Z,99979.25
2022-11-24T21:48:18.606Z,99980.88
2022-11-24T21:51:21.201Z,99987.66
2022-11-24T21:54:24.356Z,99988.25
2022-11-24T21:57:28.481Z,99984.72
2022-11-24T22:00:31.321Z,99986.19
2022-11-24T22:03:34.229Z,99988.81
2022-11-24T22:06:36.703Z,99994.19
2022-11-24T22:09:39.653Z,99987.75
2022-11-24T22:12:42.505Z,99980.22
2022-11-24T22:15:45.581Z,99987.66
2022-11-24T22:18:48.407Z,99987.16
2022-11-24T22:21:51.265Z,99995.34
2022-11-24T22:24:53.711Z,99998.72
2022-11-24T22:27:57.979Z,100015.59
2022-11-24T22:31:07.425Z,100014.81
2022-11-24T22:34:10.177Z,100014.22
2022-11-24T22:37:12.632Z,100023.03
2022-11-24T22:40:15.721Z,100024.66
2022-11-24T22:43:22.797Z,100035.78
2022-11-24T22:46:28.040Z,100028.62
2022-11-24T22:49:31.141Z,100036.22
2022-11-24T22:52:33.925Z,100038.25
2022-11-24T22:55:36.500Z,100042.69
2022-11-24T22:58:39.809Z,100035.69
2022-11-24T23:01:42.282Z,100040.78
2022-11-24T23:04:45.108Z,100042.72
2022-11-24T23:07:47.822Z,100042.53
2022-11-24T23:10:50.662Z,100045.44
2022-11-24T23:13:54.861Z,100046.97
2022-11-24T23:16:57.637Z,100054.97
2022-11-24T23:20:00.170Z,100075.53
2022-11-24T23:23:03.007Z,100066.94
2022-11-24T23:26:08.159Z,100058.91
2022-11-24T23:29:11.651Z,100062.53
2022-11-24T23:32:14.181Z,100066.22
2022-11-24T23:35:17.045Z,100075.88
2022-11-24T23:38:19.591Z,100071.37
2022-11-24T23:41:25.666Z,100077.00
2022-11-24T23:44:28.237Z,100077.66
2022-11-24T23:47:30.972Z,100083.78
2022-11-24T23:50:35.204Z,100079.69
2022-11-24T23:53:38.498Z,100078.69
2022-11-24T23:56:40.929Z,100083.78
2022-11-24T23:59:43.799Z,100081.25
